ESNG

Gällivare Airport

Gällivare, Sweden
METAR ESNG 152150Z AUTO 16003KT 130V190 9999 FEW042/// SCT059/// 10/07 Q1011
Observed Flight Rules
Aug-15 @ 21:50 UTC (36 minutes ago) Visual Flight Rules
Wind Visibility Clouds
160° at 3 knots 10,000+ meters
  • Few at 4,200' AGL
  • Scattered at 5,900' AGL
Temperatures Readings
Current 10°C / 50°F
Dewpoint 7°C / 45°F
Humidity 82%
Altimeter 29.85" Hg
Pressure 1011 hPa
Elevation 310
METAR ESNG 152150Z AUTO 16003KT 130V190 9999 FEW042/// SCT059/// 10/07 Q1011
Observed Flight Rules
Aug-15 @ 21:50 UTC
(36 minutes ago)
VFR
Wind Visibility
160° at 3 knots 10,000+ meters
Clouds
  • Few at 4,200' AGL
  • Scattered at 5,900' AGL
Temperature Dewpoint
10°C / 50°F 7°C / 45°F
Humidity Altimeter Pressure
82% 29.85" Hg 1011 hPa